Time;durP1;ratioP1;P1;durP2;ratioP2;P2;SDS_P1;SDS_P2;PMS_P1;PMS_P2;Temp;Humidity;BMP_temperature;BMP_pressure;BME280_temperature;BME280_humidity;BME280_pressure;Samples;Min_cycle;Max_cycle;Signal;HPM_P1;HPM_P2
2023/09/15 00:00:23;;;;;;;4.90;4.10;;;12.00;1.00;;;;;;5090327;28;20056;-82
2023/09/15 00:02:50;;;;;;;4.25;3.13;;;12.00;1.00;;;;;;5081640;28;20105;-82
2023/09/15 00:05:16;;;;;;;8.93;3.60;;;11.90;1.00;;;;;;5100908;28;20035;-82
2023/09/15 00:07:42;;;;;;;4.65;3.70;;;11.90;1.00;;;;;;5095799;28;20062;-82
2023/09/15 00:10:11;;;;;;;5.03;3.53;;;11.90;1.00;;;;;;5080561;28;20052;-82
2023/09/15 00:12:39;;;;;;;6.03;2.95;;;11.80;1.00;;;;;;5078558;28;20138;-82
2023/09/15 00:15:08;;;;;;;10.27;3.08;;;11.90;1.00;;;;;;5092720;28;20095;-82
2023/09/15 00:17:39;;;;;;;3.80;2.55;;;11.80;1.00;;;;;;5091446;28;20495;-83
2023/09/15 00:20:22;;;;;;;6.32;2.92;;;11.80;1.00;;;;;;5075368;28;20449;-83
2023/09/15 00:22:53;;;;;;;5.47;3.15;;;11.80;1.00;;;;;;5074868;28;20484;-82
2023/09/15 00:25:26;;;;;;;4.13;2.67;;;11.80;1.00;;;;;;5093920;28;20054;-82
2023/09/15 00:27:54;;;;;;;5.30;2.40;;;11.80;1.00;;;;;;5076018;28;20059;-82
2023/09/15 00:30:22;;;;;;;5.13;2.90;;;11.80;1.00;;;;;;5058511;28;20040;-82
2023/09/15 00:32:48;;;;;;;4.07;2.75;;;11.70;1.00;;;;;;5075397;28;20109;-82
2023/09/15 00:35:23;;;;;;;4.65;2.97;;;11.70;1.00;;;;;;5087985;28;20070;-82
2023/09/15 00:37:49;;;;;;;5.32;2.97;;;11.70;1.00;;;;;;5080862;28;20530;-82
2023/09/15 00:40:17;;;;;;;5.65;3.10;;;11.70;1.00;;;;;;5046226;28;20484;-82
2023/09/15 00:42:49;;;;;;;6.35;3.28;;;11.70;1.00;;;;;;5095427;28;20051;-82
2023/09/15 00:45:19;;;;;;;5.68;2.90;;;11.70;1.00;;;;;;5096603;28;20048;-82
2023/09/15 00:47:49;;;;;;;6.13;3.00;;;11.70;1.00;;;;;;5115684;28;20047;-82
2023/09/15 00:50:17;;;;;;;8.27;2.85;;;11.70;1.00;;;;;;5094824;28;20168;-83
2023/09/15 00:52:46;;;;;;;3.92;2.75;;;11.70;1.00;;;;;;5086530;28;20543;-81
2023/09/15 00:55:13;;;;;;;3.65;2.47;;;11.60;1.00;;;;;;5098032;28;20054;-82
2023/09/15 00:57:40;;;;;;;5.25;3.13;;;11.60;1.00;;;;;;5076067;28;20040;-85
2023/09/15 01:00:14;;;;;;;5.15;2.63;;;11.60;1.00;;;;;;5069382;28;20521;-82
2023/09/15 01:02:42;;;;;;;6.25;3.28;;;11.60;1.00;;;;;;5111447;28;20047;-83
2023/09/15 01:05:10;;;;;;;5.47;3.17;;;11.60;1.00;;;;;;5078325;28;20052;-82
2023/09/15 01:07:37;;;;;;;4.45;3.20;;;11.50;1.00;;;;;;5096906;28;20108;-83
2023/09/15 01:10:05;;;;;;;5.63;2.85;;;11.50;1.00;;;;;;5075725;28;20051;-82
2023/09/15 01:12:31;;;;;;;6.18;3.08;;;11.50;1.00;;;;;;5062180;28;20520;-82
2023/09/15 01:14:57;;;;;;;5.40;2.83;;;11.50;1.00;;;;;;5073728;28;20040;-83
2023/09/15 01:17:29;;;;;;;8.57;3.88;;;11.40;1.00;;;;;;5062111;28;20059;-82
2023/09/15 01:20:13;;;;;;;4.40;3.40;;;11.40;1.00;;;;;;5092045;28;20529;-82
2023/09/15 01:22:51;;;;;;;5.95;3.75;;;11.40;1.00;;;;;;5088485;28;20510;-82
2023/09/15 01:25:20;;;;;;;8.77;3.67;;;11.30;1.00;;;;;;5078436;28;20387;-83
2023/09/15 01:27:58;;;;;;;4.35;3.28;;;11.40;1.00;;;;;;5091543;28;20123;-82
2023/09/15 01:30:24;;;;;;;7.13;3.60;;;11.30;1.00;;;;;;5065099;28;20051;-82
2023/09/15 01:32:52;;;;;;;5.75;3.08;;;11.40;1.00;;;;;;5077015;27;20526;-82
2023/09/15 01:35:18;;;;;;;7.85;3.47;;;11.40;1.00;;;;;;5087851;28;20052;-82
2023/09/15 01:37:44;;;;;;;6.67;3.07;;;11.40;1.00;;;;;;5058852;28;20040;-91
2023/09/15 01:40:10;;;;;;;6.70;3.72;;;11.30;1.00;;;;;;5088475;27;20065;-82
2023/09/15 01:42:39;;;;;;;3.63;2.88;;;11.30;1.00;;;;;;5109417;28;20048;-82
2023/09/15 01:45:05;;;;;;;3.92;3.47;;;11.30;1.00;;;;;;5098778;28;20865;-82
2023/09/15 01:47:32;;;;;;;8.52;3.20;;;11.30;1.00;;;;;;5082296;28;20105;-82
2023/09/15 01:49:59;;;;;;;3.40;3.10;;;11.20;1.00;;;;;;5064063;28;20080;-82
2023/09/15 01:52:24;;;;;;;;;;;11.20;1.00;;;;;;5078182;28;20044;-82
2023/09/15 01:54:54;;;;;;;3.75;3.20;;;11.20;1.00;;;;;;5083049;27;20275;-82
2023/09/15 01:57:22;;;;;;;5.70;3.15;;;11.20;1.00;;;;;;5085834;27;20051;-81
2023/09/15 01:59:47;;;;;;;5.32;3.47;;;11.20;1.00;;;;;;5089490;28;20040;-85
2023/09/15 02:02:13;;;;;;;7.67;3.90;;;11.20;1.00;;;;;;5061302;28;20051;-81
2023/09/15 02:04:39;;;;;;;6.23;3.30;;;11.20;1.00;;;;;;5061379;28;20392;-82
2023/09/15 02:07:04;;;;;;;5.00;3.60;;;11.20;1.00;;;;;;5061002;28;20134;-82
2023/09/15 02:09:30;;;;;;;5.03;3.43;;;11.10;1.00;;;;;;5062026;27;20128;-83
2023/09/15 02:11:56;;;;;;;8.43;3.43;;;11.20;1.00;;;;;;5064344;27;20042;-82
2023/09/15 02:14:22;;;;;;;6.23;3.60;;;11.20;1.00;;;;;;5109887;27;20035;-82
2023/09/15 02:16:47;;;;;;;5.78;3.30;;;11.10;1.00;;;;;;5097443;28;20047;-82
2023/09/15 02:19:13;;;;;;;5.33;3.00;;;11.10;1.00;;;;;;5109766;27;20501;-82
2023/09/15 02:21:39;;;;;;;5.70;3.55;;;11.00;1.00;;;;;;5117027;27;20051;-82
2023/09/15 02:24:05;;;;;;;6.97;3.83;;;11.10;1.00;;;;;;5092380;28;20047;-82
2023/09/15 02:26:31;;;;;;;5.18;3.45;;;11.10;1.00;;;;;;5085476;28;20036;-82
2023/09/15 02:28:56;;;;;;;6.33;3.70;;;11.00;1.00;;;;;;5082028;27;20402;-82
2023/09/15 02:31:22;;;;;;;5.60;3.70;;;11.00;1.00;;;;;;5091772;28;20040;-82
2023/09/15 02:33:48;;;;;;;10.97;3.87;;;11.00;1.00;;;;;;5050195;27;20047;-82
2023/09/15 02:36:13;;;;;;;8.73;4.40;;;11.00;1.00;;;;;;5098648;27;20039;-82
2023/09/15 02:38:39;;;;;;;5.67;3.60;;;10.90;1.00;;;;;;5083778;27;20050;-83
2023/09/15 02:41:05;;;;;;;5.33;3.57;;;10.90;1.00;;;;;;5107363;28;20451;-81
2023/09/15 02:43:30;;;;;;;6.50;3.80;;;10.90;1.00;;;;;;5065582;28;20418;-81
2023/09/15 02:46:03;;;;;;;4.03;3.40;;;10.90;1.00;;;;;;5060980;28;20035;-82
2023/09/15 02:48:28;;;;;;;9.27;4.03;;;10.90;1.00;;;;;;5080668;27;20047;-82
2023/09/15 02:50:56;;;;;;;8.10;4.30;;;10.80;1.00;;;;;;5083827;28;20067;-90
2023/09/15 02:53:22;;;;;;;4.15;3.70;;;10.80;1.00;;;;;;5045448;28;20055;-82
2023/09/15 02:56:04;;;;;;;4.03;3.43;;;10.80;1.00;;;;;;5084766;28;20039;-81
2023/09/15 02:58:30;;;;;;;8.13;4.05;;;10.80;1.00;;;;;;5092593;27;20076;-82
2023/09/15 03:00:56;;;;;;;6.85;3.80;;;10.70;1.00;;;;;;5114547;27;20038;-84
2023/09/15 03:03:24;;;;;;;9.30;4.67;;;10.60;1.00;;;;;;5100167;27;20534;-82
2023/09/15 03:06:11;;;;;;;11.05;4.32;;;10.60;1.00;;;;;;5093652;27;20083;-82
2023/09/15 03:08:37;;;;;;;9.10;4.43;;;10.60;1.00;;;;;;5080748;28;20040;-82
2023/09/15 03:11:03;;;;;;;5.57;3.93;;;10.60;1.00;;;;;;5067783;27;20055;-82
2023/09/15 03:13:29;;;;;;;6.40;3.53;;;10.60;1.00;;;;;;5101339;27;20159;-81
2023/09/15 03:15:54;;;;;;;8.15;4.75;;;10.60;1.00;;;;;;5087909;28;20048;-83
2023/09/15 03:18:20;;;;;;;10.37;4.13;;;10.60;1.00;;;;;;5096836;28;20083;-82
2023/09/15 03:20:46;;;;;;;5.50;4.05;;;10.50;1.00;;;;;;5059997;28;20051;-82
2023/09/15 03:23:12;;;;;;;6.03;4.13;;;10.50;1.00;;;;;;5092443;28;20109;-82
2023/09/15 03:25:37;;;;;;;9.43;4.17;;;10.50;1.00;;;;;;5064710;28;20066;-82
2023/09/15 03:28:03;;;;;;;7.63;4.00;;;10.50;1.00;;;;;;5093114;27;20053;-82
2023/09/15 03:30:29;;;;;;;7.27;4.33;;;10.50;1.00;;;;;;5099788;28;20100;-82
2023/09/15 03:32:54;;;;;;;6.47;4.10;;;10.50;1.00;;;;;;5107334;28;20051;-82
2023/09/15 03:35:20;;;;;;;6.87;4.30;;;10.50;1.00;;;;;;5112839;28;20051;-82
2023/09/15 03:37:46;;;;;;;8.17;4.20;;;10.40;1.00;;;;;;5079269;28;20048;-82
2023/09/15 03:40:12;;;;;;;6.18;4.75;;;10.40;1.00;;;;;;5078699;28;20048;-82
2023/09/15 03:42:38;;;;;;;5.93;3.92;;;10.40;1.00;;;;;;5079818;28;20185;-82
2023/09/15 03:45:06;;;;;;;7.05;4.30;;;10.40;1.00;;;;;;5086453;28;20376;-82
2023/09/15 03:47:32;;;;;;;8.57;4.72;;;10.40;1.00;;;;;;5121125;27;20395;-82
2023/09/15 03:49:58;;;;;;;6.95;4.22;;;10.40;1.00;;;;;;5112940;27;20140;-82
2023/09/15 03:52:24;;;;;;;6.20;4.53;;;10.40;1.00;;;;;;5103236;28;20509;-81
2023/09/15 03:54:50;;;;;;;9.73;4.70;;;10.40;1.00;;;;;;5065178;28;20044;-82
2023/09/15 03:57:15;;;;;;;5.67;4.03;;;10.40;1.00;;;;;;5086327;27;20443;-82
2023/09/15 03:59:41;;;;;;;6.90;4.17;;;10.40;1.00;;;;;;5073366;27;20126;-81
2023/09/15 04:02:07;;;;;;;7.07;4.60;;;10.30;1.00;;;;;;5105607;28;20040;-82
2023/09/15 04:04:32;;;;;;;7.23;4.00;;;10.30;1.00;;;;;;5078066;27;20059;-82
2023/09/15 04:06:58;;;;;;;7.27;4.83;;;10.30;1.00;;;;;;5077445;28;20293;-82
2023/09/15 04:09:27;;;;;;;7.63;4.27;;;10.30;1.00;;;;;;5058863;28;20447;-81
2023/09/15 04:11:54;;;;;;;5.07;4.07;;;10.20;1.00;;;;;;5085799;27;20491;-82
2023/09/15 04:14:20;;;;;;;5.93;4.32;;;10.20;1.00;;;;;;5113468;28;20047;-82
2023/09/15 04:16:45;;;;;;;5.83;4.00;;;10.20;1.00;;;;;;5069729;28;20127;-81
2023/09/15 04:19:11;;;;;;;6.00;5.10;;;10.20;1.00;;;;;;5041711;28;20055;-82
2023/09/15 04:21:38;;;;;;;9.87;4.50;;;10.20;1.00;;;;;;5090878;28;20078;-82
2023/09/15 04:24:05;;;;;;;12.32;5.60;;;10.20;1.00;;;;;;5091126;28;20059;-82
2023/09/15 04:26:31;;;;;;;7.93;4.88;;;10.20;1.00;;;;;;5084792;28;20130;-82
2023/09/15 04:28:58;;;;;;;5.23;4.63;;;10.20;1.00;;;;;;5079193;28;20132;-83
2023/09/15 04:31:24;;;;;;;7.13;5.03;;;10.10;1.00;;;;;;5091123;28;20173;-82
2023/09/15 04:33:49;;;;;;;6.35;4.50;;;10.10;1.00;;;;;;5065401;28;20047;-82
2023/09/15 04:36:16;;;;;;;7.40;5.30;;;10.10;1.00;;;;;;5096276;28;20051;-82
2023/09/15 04:38:42;;;;;;;7.18;4.85;;;10.10;1.00;;;;;;5133452;28;20066;-82
2023/09/15 04:41:08;;;;;;;6.75;4.75;;;10.10;1.00;;;;;;5102834;28;20058;-81
2023/09/15 04:43:34;;;;;;;6.57;4.80;;;10.00;1.00;;;;;;5094934;28;20048;-82
2023/09/15 04:45:59;;;;;;;7.83;4.80;;;10.00;1.30;;;;;;5070448;28;20048;-83
2023/09/15 04:48:25;;;;;;;5.97;4.60;;;10.00;2.40;;;;;;5095077;28;20035;-82
2023/09/15 04:50:51;;;;;;;6.73;5.77;;;10.00;3.40;;;;;;5070822;28;20047;-81
2023/09/15 04:53:17;;;;;;;5.73;4.70;;;10.00;3.80;;;;;;5079635;28;20507;-82
2023/09/15 04:55:42;;;;;;;10.00;6.20;;;9.90;4.10;;;;;;5063482;28;20054;-81
2023/09/15 04:58:08;;;;;;;7.90;4.97;;;10.00;4.50;;;;;;5078900;28;20127;-82
2023/09/15 05:00:37;;;;;;;9.63;5.00;;;9.90;6.40;;;;;;5097934;28;20047;-82
2023/09/15 05:03:03;;;;;;;9.85;5.55;;;9.90;6.80;;;;;;5083174;28;20094;-82
2023/09/15 05:05:29;;;;;;;11.45;5.30;;;9.90;8.60;;;;;;5079397;27;20086;-83
2023/09/15 05:07:56;;;;;;;8.80;5.27;;;9.90;10.40;;;;;;5068523;28;20059;-82
2023/09/15 05:10:22;;;;;;;8.43;5.20;;;9.80;11.20;;;;;;5084424;27;20580;-83
2023/09/15 05:12:48;;;;;;;6.60;5.03;;;9.90;11.50;;;;;;5118661;27;20126;-82
2023/09/15 05:15:14;;;;;;;8.82;5.22;;;9.90;11.30;;;;;;5077096;28;20054;-91
2023/09/15 05:17:40;;;;;;;7.43;5.37;;;9.90;11.70;;;;;;5091876;28;20044;-82
2023/09/15 05:20:06;;;;;;;7.80;5.50;;;10.00;10.80;;;;;;5095646;28;20044;-81
2023/09/15 05:22:32;;;;;;;10.50;5.40;;;9.90;11.00;;;;;;5079175;27;20054;-83
2023/09/15 05:24:58;;;;;;;11.83;6.03;;;9.90;11.50;;;;;;5068998;28;20122;-82
2023/09/15 05:27:24;;;;;;;7.67;6.00;;;10.00;11.40;;;;;;5094191;28;20105;-82
2023/09/15 05:29:50;;;;;;;8.53;5.13;;;10.00;11.50;;;;;;5084121;27;20138;-82
2023/09/15 05:32:16;;;;;;;9.30;5.70;;;10.00;12.80;;;;;;5068644;27;20308;-82
2023/09/15 05:34:42;;;;;;;7.28;5.28;;;9.90;13.00;;;;;;5062570;28;20052;-82
2023/09/15 05:37:08;;;;;;;8.47;5.70;;;10.00;13.80;;;;;;5069797;28;20055;-82
2023/09/15 05:39:33;;;;;;;14.30;6.73;;;10.00;13.70;;;;;;5081934;27;20469;-83
2023/09/15 05:42:00;;;;;;;7.13;6.43;;;10.00;14.60;;;;;;5080844;28;20071;-82
2023/09/15 05:44:26;;;;;;;;;;;10.00;16.00;;;;;;5070949;28;20043;-82
2023/09/15 05:46:52;;;;;;;9.20;5.45;;;10.00;24.10;;;;;;5085994;28;19920;-82
2023/09/15 05:49:18;;;;;;;;;;;10.00;15.80;;;;;;5113240;27;20053;-82
2023/09/15 05:51:44;;;;;;;6.75;5.25;;;11.00;23.70;;;;;;5089112;28;20383;-82
2023/09/15 05:54:09;;;;;;;8.43;5.70;;;10.00;15.70;;;;;;5086663;27;20040;-82
2023/09/15 05:56:35;;;;;;;7.50;5.73;;;10.00;17.10;;;;;;5104588;27;20043;-82
2023/09/15 05:59:01;;;;;;;7.35;5.15;;;10.10;21.00;;;;;;5045821;28;20121;-82
2023/09/15 06:01:27;;;;;;;6.90;5.10;;;10.20;26.90;;;;;;5048413;28;20036;-82
2023/09/15 06:03:53;;;;;;;6.33;5.37;;;10.30;34.10;;;;;;5095083;28;20047;-82
2023/09/15 06:06:19;;;;;;;7.15;5.07;;;10.70;34.90;;;;;;5077498;28;20178;-82
2023/09/15 06:08:45;;;;;;;7.38;5.43;;;11.20;30.30;;;;;;5084618;27;20126;-82
2023/09/15 06:11:11;;;;;;;5.85;5.25;;;11.60;24.60;;;;;;5101623;27;20134;-82
2023/09/15 06:13:37;;;;;;;6.07;4.43;;;12.00;17.00;;;;;;5066661;28;20040;-82
2023/09/15 06:16:04;;;;;;;10.02;5.47;;;12.30;10.80;;;;;;5071902;28;20200;-82
2023/09/15 06:18:33;;;;;;;6.88;5.15;;;12.70;3.20;;;;;;5081631;28;20044;-83
2023/09/15 06:20:59;;;;;;;5.78;4.50;;;13.10;1.00;;;;;;5097302;28;20055;-81
2023/09/15 06:23:25;;;;;;;8.77;4.77;;;13.40;1.00;;;;;;5105583;28;20044;-87
2023/09/15 06:25:54;;;;;;;7.90;4.82;;;13.70;1.00;;;;;;5074924;28;20415;-82
2023/09/15 06:28:19;;;;;;;5.07;4.60;;;14.00;1.00;;;;;;5080258;28;20368;-82
2023/09/15 06:30:46;;;;;;;5.03;4.20;;;14.10;1.00;;;;;;5134291;27;20039;-82
2023/09/15 06:33:11;;;;;;;8.02;4.97;;;14.50;1.00;;;;;;5082725;28;20358;-82
2023/09/15 06:35:37;;;;;;;4.95;4.13;;;14.70;1.00;;;;;;5065155;28;20043;-81
2023/09/15 06:38:04;;;;;;;4.72;4.22;;;15.00;1.00;;;;;;5077741;28;20128;-79
2023/09/15 06:40:29;;;;;;;5.13;4.25;;;15.20;1.00;;;;;;5114185;28;20043;-80
2023/09/15 06:42:55;;;;;;;5.60;3.90;;;15.50;1.00;;;;;;5095771;28;20051;-83
2023/09/15 06:45:21;;;;;;;5.43;3.85;;;15.70;99.90;;;;;;5088464;28;20055;-85
2023/09/15 06:47:46;;;;;;;7.03;4.70;;;15.90;99.90;;;;;;5080510;28;20044;-83
2023/09/15 06:50:12;;;;;;;5.63;3.67;;;16.00;99.90;;;;;;5062332;28;20391;-84
2023/09/15 06:52:38;;;;;;;5.57;4.18;;;16.10;99.90;;;;;;5062424;28;20043;-84
2023/09/15 06:55:04;;;;;;;8.48;4.22;;;16.30;99.90;;;;;;5059477;28;20048;-85
2023/09/15 06:57:29;;;;;;;6.22;4.03;;;16.40;99.90;;;;;;5059289;28;20056;-85
2023/09/15 06:59:55;;;;;;;7.85;4.15;;;16.70;99.90;;;;;;5042476;28;20479;-85
2023/09/15 07:02:21;;;;;;;4.55;3.78;;;16.90;1.00;;;;;;5076125;28;20052;-85
2023/09/15 07:04:46;;;;;;;5.03;3.78;;;17.10;99.90;;;;;;5058789;28;20051;-86
2023/09/15 07:07:12;;;;;;;7.90;3.90;;;17.30;3.80;;;;;;5058465;28;20062;-84
2023/09/15 07:09:38;;;;;;;6.63;4.57;;;17.60;99.90;;;;;;5082826;27;20060;-84
2023/09/15 07:12:04;;;;;;;6.10;3.97;;;17.70;99.90;;;;;;5105034;27;20053;-84
2023/09/15 07:14:30;;;;;;;7.13;3.92;;;17.90;99.90;;;;;;5099358;27;20047;-84
2023/09/15 07:16:55;;;;;;;4.88;3.35;;;18.20;31.10;;;;;;5101999;28;20051;-84
2023/09/15 07:19:21;;;;;;;7.43;3.95;;;18.30;99.90;;;;;;5096193;28;20043;-82
2023/09/15 07:21:47;;;;;;;4.43;3.83;;;18.50;99.90;;;;;;5093504;28;20040;-83
2023/09/15 07:24:13;;;;;;;6.38;4.00;;;18.60;99.90;;;;;;5059362;28;20495;-82
2023/09/15 07:26:39;;;;;;;6.88;4.47;;;18.70;99.90;;;;;;5075112;28;20040;-84
2023/09/15 07:29:05;;;;;;;6.18;4.22;;;18.60;1.00;;;;;;5075549;28;20410;-82
2023/09/15 07:31:34;;;;;;;6.57;3.90;;;18.60;99.90;;;;;;5075245;28;20048;-81
2023/09/15 07:33:59;;;;;;;5.72;3.90;;;18.70;1.00;;;;;;5075180;28;20079;-83
2023/09/15 07:36:25;;;;;;;4.90;3.55;;;18.70;99.90;;;;;;5093304;28;20491;-84
2023/09/15 07:38:52;;;;;;;5.45;3.67;;;18.80;99.90;;;;;;5070964;28;20067;-84
2023/09/15 07:41:18;;;;;;;4.75;3.80;;;19.00;45.50;;;;;;5059024;28;20052;-83
2023/09/15 07:43:45;;;;;;;6.68;3.70;;;19.00;1.00;;;;;;5094386;28;20048;-84
2023/09/15 07:46:13;;;;;;;4.95;3.72;;;19.00;1.00;;;;;;5088654;27;20055;-83
2023/09/15 07:48:40;;;;;;;5.93;4.43;;;19.00;2.50;;;;;;5061913;28;20059;-84
2023/09/15 07:51:06;;;;;;;7.35;3.53;;;19.30;96.60;;;;;;5103587;27;20035;-84
2023/09/15 07:53:32;;;;;;;;;;;19.50;99.90;;;;;;5082115;27;20138;-83
2023/09/15 07:55:58;;;;;;;8.27;4.00;;;19.70;99.90;;;;;;5112815;27;19927;-84
2023/09/15 07:58:24;;;;;;;5.63;3.30;;;19.80;99.90;;;;;;5041573;28;20048;-84
2023/09/15 08:00:53;;;;;;;7.10;4.05;;;19.90;99.90;;;;;;5057815;28;20052;-85
2023/09/15 08:03:19;;;;;;;5.60;3.42;;;20.00;99.90;;;;;;5063999;28;20048;-85
2023/09/15 08:05:44;;;;;;;6.10;3.63;;;20.10;34.00;;;;;;5074325;28;20043;-86
2023/09/15 08:08:10;;;;;;;4.35;3.65;;;19.90;99.90;;;;;;5057826;28;20458;-86
2023/09/15 08:10:36;;;;;;;6.80;4.20;;;20.10;99.90;;;;;;5082240;28;20079;-86
2023/09/15 08:13:02;;;;;;;4.80;3.05;;;20.00;99.90;;;;;;5058224;28;20080;-86
2023/09/15 08:15:27;;;;;;;9.68;3.20;;;20.10;27.80;;;;;;5090794;28;20486;-85
2023/09/15 08:17:53;;;;;;;5.65;3.08;;;20.20;47.10;;;;;;5094534;28;20454;-86
2023/09/15 08:20:19;;;;;;;3.40;2.55;;;20.20;99.90;;;;;;5068798;28;20036;-85
2023/09/15 08:22:45;;;;;;;3.95;2.83;;;20.20;99.90;;;;;;5106707;27;20051;-86
2023/09/15 08:25:11;;;;;;;3.45;2.92;;;20.20;83.50;;;;;;5078316;28;20051;-86
2023/09/15 08:27:39;;;;;;;3.70;2.90;;;20.30;1.00;;;;;;5094592;28;20043;-85
2023/09/15 08:30:09;;;;;;;4.97;2.85;;;20.20;1.00;;;;;;5092250;28;20062;-84
2023/09/15 08:32:35;;;;;;;6.35;3.67;;;20.00;99.90;;;;;;5059233;28;20046;-83
2023/09/15 08:35:01;;;;;;;6.38;3.35;;;19.90;99.90;;;;;;5077620;28;20135;-82
2023/09/15 08:37:27;;;;;;;;;;;19.80;99.90;;;;;;5078255;28;20503;-82
2023/09/15 08:39:53;;;;;;;5.80;2.88;;;19.60;67.30;;;;;;5094381;28;19924;-83
2023/09/15 08:42:37;;;;;;;6.57;3.05;;;19.60;1.00;;;;;;5078235;28;20608;-83
2023/09/15 08:45:04;;;;;;;5.43;2.78;;;19.50;60.70;;;;;;5093708;28;20134;-83
2023/09/15 08:47:34;;;;;;;4.50;3.03;;;19.40;99.90;;;;;;5072101;28;20044;-83
2023/09/15 08:50:01;;;;;;;6.32;3.20;;;19.50;99.90;;;;;;5074010;28;20140;-82
2023/09/15 08:52:27;;;;;;;6.95;3.03;;;19.40;99.90;;;;;;5104772;28;20042;-83
2023/09/15 08:54:54;;;;;;;6.75;3.05;;;19.30;1.00;;;;;;5077488;28;20074;-83
2023/09/15 08:57:21;;;;;;;4.15;2.53;;;19.20;1.00;;;;;;5054654;28;20064;-82
2023/09/15 08:59:49;;;;;;;4.35;2.85;;;19.20;1.00;;;;;;5075313;28;20059;-85
2023/09/15 09:02:15;;;;;;;4.80;2.67;;;19.20;99.90;;;;;;5072598;28;20051;-82
2023/09/15 09:04:41;;;;;;;9.65;3.22;;;19.30;99.90;;;;;;5107383;28;20043;-84
2023/09/15 09:07:07;;;;;;;;;;;19.40;99.90;;;;;;5114713;28;20811;-82
2023/09/15 09:09:34;;;;;;;4.97;2.65;;;19.40;99.90;;;;;;5114538;28;19926;-82
2023/09/15 09:12:00;;;;;;;;;;;19.50;68.60;;;;;;5114518;28;20046;-82
2023/09/15 09:14:25;;;;;;;4.32;2.15;;;19.40;99.90;;;;;;5098145;28;19920;-84
2023/09/15 09:16:52;;;;;;;4.60;2.17;;;19.40;99.90;;;;;;5080708;28;20043;-86
2023/09/15 09:19:18;;;;;;;6.15;2.70;;;19.40;99.90;;;;;;5078697;28;20043;-84
2023/09/15 09:21:44;;;;;;;5.00;2.72;;;19.40;99.90;;;;;;5086611;28;20376;-83
2023/09/15 09:24:11;;;;;;;4.75;2.85;;;19.40;21.10;;;;;;5073589;28;20253;-83
2023/09/15 09:26:38;;;;;;;5.07;2.78;;;19.40;1.00;;;;;;5074140;28;20131;-83
2023/09/15 09:29:04;;;;;;;4.47;3.05;;;19.50;99.90;;;;;;5090010;28;20044;-83
2023/09/15 09:31:30;;;;;;;5.10;2.53;;;19.60;1.00;;;;;;5074022;28;20087;-83
2023/09/15 09:33:58;;;;;;;4.75;2.55;;;19.60;98.60;;;;;;5073619;28;20052;-83
2023/09/15 09:36:24;;;;;;;7.88;3.88;;;19.70;99.90;;;;;;5041326;28;20047;-83
2023/09/15 09:38:51;;;;;;;5.85;3.25;;;19.80;1.00;;;;;;5049712;28;20078;-83
2023/09/15 09:41:20;;;;;;;5.53;3.35;;;19.70;99.90;;;;;;5079042;28;20553;-83
2023/09/15 09:43:47;;;;;;;6.72;3.35;;;19.70;79.00;;;;;;5080785;28;20511;-83
2023/09/15 09:46:13;;;;;;;8.25;3.80;;;19.80;99.90;;;;;;5113572;27;20043;-83
2023/09/15 09:48:41;;;;;;;7.57;3.20;;;19.90;99.90;;;;;;5060709;28;20058;-83
2023/09/15 09:51:08;;;;;;;8.10;4.30;;;19.90;90.90;;;;;;5076764;28;20093;-83
2023/09/15 09:53:35;;;;;;;5.82;3.03;;;20.00;99.90;;;;;;5077693;28;20117;-83
2023/09/15 09:56:05;;;;;;;8.05;4.97;;;20.10;44.40;;;;;;5088198;28;20051;-84
2023/09/15 09:58:36;;;;;;;6.75;3.72;;;20.20;41.90;;;;;;5094146;28;20040;-83
2023/09/15 10:01:06;;;;;;;7.35;4.13;;;20.30;80.60;;;;;;5105098;28;20117;-83
2023/09/15 10:03:34;;;;;;;7.55;3.05;;;20.40;1.00;;;;;;5098965;27;20368;-84
2023/09/15 10:06:00;;;;;;;8.48;3.65;;;20.50;99.90;;;;;;5060803;28;20124;-85
2023/09/15 10:08:27;;;;;;;;;;;20.50;99.90;;;;;;5114515;27;20051;-83
2023/09/15 10:10:53;;;;;;;4.07;2.88;;;20.90;99.90;;;;;;5124528;27;19927;-85
2023/09/15 10:13:19;;;;;;;5.38;3.33;;;20.60;99.90;;;;;;5044829;28;20078;-85
2023/09/15 10:15:46;;;;;;;5.45;2.92;;;20.60;99.90;;;;;;5087972;27;20070;-86
2023/09/15 10:18:14;;;;;;;6.22;3.03;;;20.70;99.90;;;;;;5101227;27;20054;-84
2023/09/15 10:20:42;;;;;;;5.28;3.72;;;20.80;99.90;;;;;;5098337;28;20043;-84
2023/09/15 10:23:10;;;;;;;5.28;2.67;;;20.80;1.00;;;;;;5076352;28;20091;-83
2023/09/15 10:25:54;;;;;;;4.25;2.70;;;20.90;99.90;;;;;;5087024;27;20095;-82
2023/09/15 10:28:22;;;;;;;4.05;3.17;;;21.00;99.90;;;;;;5116728;27;20086;-82
2023/09/15 10:30:54;;;;;;;7.00;3.53;;;21.10;24.80;;;;;;5105643;28;20048;-83
2023/09/15 10:33:28;;;;;;;5.53;2.97;;;21.20;99.90;;;;;;5095152;28;20905;-82
2023/09/15 10:36:02;;;;;;;6.60;3.45;;;21.20;1.00;;;;;;5098907;27;20509;-85
2023/09/15 10:38:29;;;;;;;6.50;3.00;;;21.30;1.00;;;;;;5096863;28;20165;-83
2023/09/15 10:40:58;;;;;;;4.68;3.25;;;21.40;1.00;;;;;;5079637;28;20051;-85
2023/09/15 10:43:23;;;;;;;5.07;2.78;;;21.40;99.90;;;;;;5075193;28;20046;-84
2023/09/15 10:45:57;;;;;;;5.68;2.47;;;21.40;99.90;;;;;;5081211;28;20051;-84
2023/09/15 10:48:46;;;;;;;5.15;3.20;;;21.50;1.00;;;;;;5068181;28;20131;-83
2023/09/15 10:51:17;;;;;;;7.22;3.22;;;21.70;99.90;;;;;;5075802;28;20047;-82
2023/09/15 10:53:56;;;;;;;5.80;2.42;;;21.80;99.90;;;;;;5080383;28;20137;-83
2023/09/15 10:56:22;;;;;;;3.63;2.60;;;21.90;99.90;;;;;;5061120;28;20059;-82
2023/09/15 10:58:48;;;;;;;6.35;2.75;;;21.90;99.90;;;;;;5070070;28;20035;-82
2023/09/15 11:01:17;;;;;;;3.80;2.33;;;22.00;99.90;;;;;;5087987;28;20058;-83
2023/09/15 11:03:44;;;;;;;4.03;2.80;;;22.10;99.90;;;;;;5077010;28;20047;-84
2023/09/15 11:06:16;;;;;;;4.45;2.63;;;22.30;99.90;;;;;;5086645;28;20043;-82
2023/09/15 11:08:42;;;;;;;5.25;2.72;;;22.40;99.90;;;;;;5094072;27;20059;-81
2023/09/15 11:11:11;;;;;;;3.53;2.72;;;22.50;99.90;;;;;;5085473;27;20125;-88
2023/09/15 11:13:39;;;;;;;6.00;3.05;;;22.50;99.90;;;;;;5084080;27;20044;-83
2023/09/15 11:16:05;;;;;;;5.03;2.72;;;22.60;99.90;;;;;;5081505;28;20369;-84
2023/09/15 11:18:36;;;;;;;4.65;2.80;;;22.80;99.90;;;;;;5101107;28;20048;-82
2023/09/15 11:21:02;;;;;;;4.55;2.47;;;22.90;99.90;;;;;;5078551;28;20047;-83
2023/09/15 11:23:29;;;;;;;6.20;2.60;;;23.00;99.90;;;;;;5095233;28;20055;-82
2023/09/15 11:26:02;;;;;;;6.72;2.38;;;23.10;99.90;;;;;;5079347;28;20158;-82
2023/09/15 11:28:30;;;;;;;4.53;2.00;;;23.20;99.90;;;;;;5100232;27;20391;-83
2023/09/15 11:30:57;;;;;;;4.82;2.78;;;23.20;99.90;;;;;;5102386;27;20046;-83
2023/09/15 11:33:22;;;;;;;4.15;2.38;;;23.20;99.90;;;;;;5086395;28;20098;-84
2023/09/15 11:35:49;;;;;;;5.93;3.05;;;23.30;99.90;;;;;;5102337;28;20044;-83
2023/09/15 11:38:15;;;;;;;6.00;2.65;;;23.40;99.90;;;;;;5072172;27;20058;-83
2023/09/15 11:40:47;;;;;;;7.90;2.40;;;23.40;99.90;;;;;;5091019;28;20052;-83
2023/09/15 11:43:14;;;;;;;5.78;2.53;;;23.50;99.90;;;;;;5071743;27;20113;-87
2023/09/15 11:45:41;;;;;;;4.90;2.35;;;23.60;99.90;;;;;;5099055;28;20039;-83
2023/09/15 11:48:07;;;;;;;6.45;2.30;;;23.60;99.90;;;;;;5093633;28;20062;-85
2023/09/15 11:50:34;;;;;;;3.42;2.28;;;23.50;99.90;;;;;;5112169;27;20043;-82
2023/09/15 11:53:00;;;;;;;5.03;2.28;;;23.50;99.90;;;;;;5102139;28;20047;-83
2023/09/15 11:55:26;;;;;;;5.00;3.28;;;23.50;99.90;;;;;;5077924;28;20048;-84
2023/09/15 11:57:52;;;;;;;;;;;23.60;99.90;;;;;;5062484;28;20050;-84
2023/09/15 12:00:20;;;;;;;4.68;2.60;;;23.50;99.90;;;;;;5075765;28;20014;-84
2023/09/15 12:02:47;;;;;;;6.90;3.22;;;23.20;99.90;;;;;;5094659;28;20077;-83
2023/09/15 12:05:19;;;;;;;4.45;2.28;;;23.00;99.90;;;;;;5098732;27;20478;-83
2023/09/15 12:07:46;;;;;;;3.65;2.10;;;22.80;99.90;;;;;;5073005;28;20081;-84
2023/09/15 12:10:16;;;;;;;4.35;2.10;;;22.70;99.90;;;;;;5080032;28;20052;-84
2023/09/15 12:12:43;;;;;;;6.70;2.47;;;22.80;99.90;;;;;;5095955;27;20039;-85
2023/09/15 12:15:09;;;;;;;5.72;2.35;;;23.00;99.90;;;;;;5098834;27;20046;-85
2023/09/15 12:17:39;;;;;;;5.47;2.22;;;23.20;99.90;;;;;;5114948;27;20494;-85
2023/09/15 12:20:07;;;;;;;5.88;2.88;;;23.40;99.90;;;;;;5090733;28;20574;-85
2023/09/15 12:22:37;;;;;;;3.85;2.20;;;23.50;99.90;;;;;;5058258;28;20048;-86
2023/09/15 12:25:02;;;;;;;5.03;2.00;;;23.70;99.90;;;;;;5091971;28;20051;-84
2023/09/15 12:27:29;;;;;;;4.43;2.40;;;23.90;99.90;;;;;;5079206;28;20169;-88
2023/09/15 12:29:56;;;;;;;;;;;23.80;99.90;;;;;;5093017;28;20074;-87
2023/09/15 12:32:30;;;;;;;3.85;2.55;;;23.70;99.90;;;;;;5080469;28;19978;-87
2023/09/15 12:34:56;;;;;;;3.13;2.15;;;23.50;99.90;;;;;;5088033;28;20048;-87
2023/09/15 12:37:29;;;;;;;8.52;3.22;;;23.60;99.90;;;;;;5094492;28;20051;-87
2023/09/15 12:39:54;;;;;;;4.60;1.77;;;23.20;99.90;;;;;;5098760;28;20528;-86
2023/09/15 12:42:20;;;;;;;4.28;2.15;;;23.30;99.90;;;;;;5081927;28;20047;-87
2023/09/15 12:44:46;;;;;;;2.95;2.10;;;23.40;99.90;;;;;;5083335;28;20100;-87
2023/09/15 12:47:12;;;;;;;4.35;2.65;;;23.50;99.90;;;;;;5096535;28;20040;-87
2023/09/15 12:49:38;;;;;;;5.05;2.60;;;23.50;99.90;;;;;;5064098;28;20102;-86
2023/09/15 12:52:04;;;;;;;7.20;2.53;;;23.60;99.90;;;;;;5068038;28;20384;-88
2023/09/15 12:54:30;;;;;;;5.93;2.85;;;23.70;99.90;;;;;;5080977;28;20101;-83